createdAt,value
2022-08-18T00:01:50.502Z,96860.00
2022-08-18T00:04:35.049Z,96855.72
2022-08-18T00:07:03.944Z,96855.38
2022-08-18T00:09:32.726Z,96851.38
2022-08-18T00:12:01.933Z,96855.88
2022-08-18T00:14:28.493Z,96847.19
2022-08-18T00:16:55.108Z,96840.09
2022-08-18T00:19:45.546Z,96839.16
2022-08-18T00:22:12.457Z,96833.72
2022-08-18T00:24:47.634Z,96831.50
2022-08-18T00:27:22.988Z,96843.41
2022-08-18T00:29:50.222Z,96836.53
2022-08-18T00:32:19.786Z,96835.03
2022-08-18T00:34:46.434Z,96841.41
2022-08-18T00:37:13.004Z,96838.03
2022-08-18T00:39:43.475Z,96850.06
2022-08-18T00:42:29.007Z,96846.81
2022-08-18T00:45:00.013Z,96849.56
2022-08-18T00:47:42.855Z,96847.97
2022-08-18T00:50:51.659Z,96837.75
2022-08-18T00:53:23.976Z,96832.81
2022-08-18T00:55:54.475Z,96842.25
2022-08-18T00:58:28.121Z,96845.81
2022-08-18T01:00:55.058Z,96842.66
2022-08-18T01:03:25.129Z,96849.22
2022-08-18T01:05:59.247Z,96841.69
2022-08-18T01:08:28.470Z,96846.13
2022-08-18T01:10:56.499Z,96849.97
2022-08-18T01:13:27.330Z,96849.97
2022-08-18T01:15:53.888Z,96849.97
2022-08-18T01:18:40.096Z,96852.25
2022-08-18T01:21:43.936Z,96849.59
2022-08-18T01:24:12.994Z,96869.38
2022-08-18T01:26:50.083Z,96860.97
2022-08-18T01:29:19.206Z,96861.19
2022-08-18T01:31:55.439Z,96868.94
2022-08-18T01:34:26.376Z,96869.47
2022-08-18T01:36:55.005Z,96867.22
2022-08-18T01:40:59.750Z,96870.78
2022-08-18T01:42:09.079Z,96871.97
2022-08-18T01:44:35.821Z,96870.94
2022-08-18T01:47:02.470Z,96877.94
2022-08-18T01:49:29.035Z,96868.59
2022-08-18T01:51:55.775Z,96867.47
2022-08-18T01:54:22.872Z,96860.75
2022-08-18T01:56:49.546Z,96863.25
2022-08-18T01:59:16.152Z,96855.38
2022-08-18T02:01:49.547Z,96856.19
2022-08-18T02:04:35.722Z,96860.47
2022-08-18T02:07:07.349Z,96849.97
2022-08-18T02:09:37.334Z,96847.53
2022-08-18T02:12:05.839Z,96843.53
2022-08-18T02:14:32.922Z,96847.50
2022-08-18T02:17:02.418Z,96854.88
2022-08-18T02:19:35.050Z,96853.66
2022-08-18T02:22:02.318Z,96855.50
2022-08-18T02:24:29.039Z,96847.94
2022-08-18T02:26:55.645Z,96843.47
2022-08-18T02:29:22.232Z,96833.31
2022-08-18T02:31:48.867Z,96837.81
2022-08-18T02:34:16.693Z,96827.75
2022-08-18T02:36:43.290Z,96824.22
2022-08-18T02:39:09.871Z,96828.91
2022-08-18T02:41:36.932Z,96830.13
2022-08-18T02:44:04.882Z,96829.25
2022-08-18T02:46:31.607Z,96826.59
2022-08-18T02:49:00.065Z,96822.75
2022-08-18T02:51:26.784Z,96831.16
2022-08-18T02:53:54.250Z,96831.78
2022-08-18T02:56:41.484Z,96829.81
2022-08-18T02:59:18.910Z,96825.31
2022-08-18T03:01:53.507Z,96828.19
2022-08-18T03:04:28.584Z,96829.34
2022-08-18T03:06:58.334Z,96830.38
2022-08-18T03:09:24.951Z,96832.69
2022-08-18T03:11:52.845Z,96828.84
2022-08-18T03:14:19.664Z,96829.88
2022-08-18T03:16:53.703Z,96829.31
2022-08-18T03:19:22.805Z,96845.03
2022-08-18T03:21:49.392Z,96850.13
2022-08-18T03:24:22.934Z,96850.13
2022-08-18T03:26:51.589Z,96852.78
2022-08-18T03:29:18.442Z,96843.59
2022-08-18T03:31:45.508Z,96834.84
2022-08-18T03:34:12.801Z,96846.63
2022-08-18T03:36:39.836Z,96841.09
2022-08-18T03:39:09.247Z,96846.94
2022-08-18T03:41:58.901Z,96834.03
2022-08-18T03:44:25.150Z,96844.50
2022-08-18T03:46:51.834Z,96846.19
2022-08-18T03:49:18.715Z,96845.81
2022-08-18T03:51:49.191Z,96839.69
2022-08-18T03:54:17.621Z,96832.56
2022-08-18T03:56:46.269Z,96829.53
2022-08-18T03:59:17.880Z,96834.38
2022-08-18T04:01:45.883Z,96830.31
2022-08-18T04:04:15.515Z,96837.06
2022-08-18T04:06:45.436Z,96826.28
2022-08-18T04:09:14.419Z,96834.41
2022-08-18T04:11:43.386Z,96844.50
2022-08-18T04:14:13.251Z,96848.63
2022-08-18T04:16:40.800Z,96844.19
2022-08-18T04:19:08.856Z,96850.09
2022-08-18T04:21:37.626Z,96845.22
2022-08-18T04:24:05.349Z,96857.03
2022-08-18T04:26:34.317Z,96845.81
2022-08-18T04:29:03.736Z,96853.16
2022-08-18T04:31:31.101Z,96855.41
2022-08-18T04:34:00.017Z,96850.69
2022-08-18T04:36:27.599Z,96865.06
2022-08-18T04:38:56.381Z,96862.19
2022-08-18T04:41:26.293Z,96867.97
2022-08-18T04:44:01.110Z,96867.84
2022-08-18T04:46:28.255Z,96860.56
2022-08-18T04:48:59.314Z,96856.28
2022-08-18T04:52:37.357Z,96856.06
2022-08-18T04:54:16.169Z,96850.75
2022-08-18T04:56:43.582Z,96852.75
2022-08-18T04:59:13.092Z,96860.94
2022-08-18T05:01:42.179Z,96858.72
2022-08-18T05:04:09.966Z,96850.16
2022-08-18T05:06:37.320Z,96852.81
2022-08-18T05:09:07.455Z,96845.63
2022-08-18T05:11:34.852Z,96847.00
2022-08-18T05:14:03.586Z,96850.19
2022-08-18T05:16:32.763Z,96841.19
2022-08-18T05:19:04.477Z,96843.13
2022-08-18T05:21:37.300Z,96848.03
2022-08-18T05:24:05.697Z,96853.50
2022-08-18T05:26:32.270Z,96857.91
2022-08-18T05:29:04.261Z,96855.22
2022-08-18T05:31:46.209Z,96862.97
2022-08-18T05:34:12.836Z,96867.41
2022-08-18T05:36:48.453Z,96859.59
2022-08-18T05:39:18.029Z,96861.13
2022-08-18T05:41:53.973Z,96869.78
2022-08-18T05:44:26.237Z,96864.38
2022-08-18T05:46:55.276Z,96871.50
2022-08-18T05:49:22.801Z,96871.81
2022-08-18T05:51:52.731Z,96866.16
2022-08-18T05:54:39.963Z,96882.09
2022-08-18T05:57:15.448Z,96879.66
2022-08-18T05:59:44.156Z,96893.09
2022-08-18T06:02:21.369Z,96888.22
2022-08-18T06:04:52.618Z,96891.00
2022-08-18T06:07:48.286Z,96892.84
2022-08-18T06:10:15.427Z,96898.38
2022-08-18T06:12:57.048Z,96889.03
2022-08-18T06:15:47.720Z,96892.31
2022-08-18T06:18:18.649Z,96891.25
2022-08-18T06:21:18.047Z,96887.25
2022-08-18T06:24:07.029Z,96894.22
2022-08-18T06:26:42.488Z,96900.25
2022-08-18T06:29:29.890Z,96910.19
2022-08-18T06:32:28.313Z,96908.91
2022-08-18T06:35:18.461Z,96910.56
2022-08-18T06:38:37.925Z,96913.94
2022-08-18T06:41:40.960Z,96908.97
2022-08-18T06:44:48.835Z,96913.75
2022-08-18T06:47:45.032Z,96917.81
2022-08-18T06:50:18.349Z,96921.13
2022-08-18T06:52:54.177Z,96929.25
2022-08-18T06:55:38.889Z,96928.75
2022-08-18T06:58:30.260Z,96919.72
2022-08-18T07:00:58.798Z,96926.31
2022-08-18T07:03:34.615Z,96915.75
2022-08-18T07:06:28.484Z,96919.69
2022-08-18T07:09:00.410Z,96916.28
2022-08-18T07:11:34.431Z,96913.72
2022-08-18T07:14:22.242Z,96908.91
2022-08-18T07:16:58.748Z,96902.72
2022-08-18T07:19:29.629Z,96913.69
2022-08-18T07:22:09.321Z,96909.25
2022-08-18T07:24:47.501Z,96913.22
2022-08-18T07:27:19.754Z,96914.25
2022-08-18T07:30:06.677Z,96904.63
2022-08-18T07:32:39.739Z,96916.91
2022-08-18T07:35:07.768Z,96905.22
2022-08-18T07:37:50.404Z,96907.16
2022-08-18T07:40:22.583Z,96905.78
2022-08-18T07:43:07.772Z,96914.84
2022-08-18T07:45:37.780Z,96910.78
2022-08-18T07:48:37.040Z,96908.81
2022-08-18T07:51:17.359Z,96919.50
2022-08-18T07:53:56.894Z,96924.53
2022-08-18T07:56:28.258Z,96927.59
2022-08-18T07:58:58.904Z,96931.44
2022-08-18T08:01:38.470Z,96925.53
2022-08-18T08:04:11.171Z,96929.66
2022-08-18T08:07:24.756Z,96938.97
2022-08-18T08:09:53.819Z,96938.81
2022-08-18T08:13:09.233Z,96947.59
2022-08-18T08:15:45.648Z,96954.13
2022-08-18T08:18:44.354Z,96954.13
2022-08-18T08:21:15.447Z,96955.91
2022-08-18T08:23:50.718Z,96966.59
2022-08-18T08:27:02.391Z,96956.22
2022-08-18T08:29:45.360Z,96963.66
2022-08-18T08:32:16.233Z,96955.97
2022-08-18T08:34:57.110Z,96964.44
2022-08-18T08:37:29.485Z,96967.09
2022-08-18T08:40:04.310Z,96953.53
2022-08-18T08:42:42.138Z,96961.66
2022-08-18T08:45:14.600Z,96956.78
2022-08-18T08:48:08.953Z,96962.47
2022-08-18T08:50:42.552Z,96968.75
2022-08-18T08:53:16.841Z,96966.34
2022-08-18T08:55:51.095Z,96982.56
2022-08-18T08:58:29.871Z,96977.88
2022-08-18T09:00:57.787Z,96979.19
2022-08-18T09:03:45.440Z,96983.88
2022-08-18T09:06:31.155Z,96988.28
2022-08-18T09:09:21.035Z,96980.00
2022-08-18T09:12:10.858Z,96977.09
2022-08-18T09:14:51.808Z,96977.69
2022-08-18T09:17:33.935Z,96971.50
2022-08-18T09:20:10.004Z,96983.88
2022-08-18T09:23:18.192Z,96978.84
2022-08-18T09:25:54.038Z,96976.00
2022-08-18T09:28:24.747Z,96981.66
2022-08-18T09:31:08.679Z,96977.84
2022-08-18T09:33:40.514Z,96977.19
2022-08-18T09:36:26.172Z,96981.53
2022-08-18T09:39:54.442Z,96985.25
2022-08-18T09:42:59.283Z,96987.97
2022-08-18T09:45:33.609Z,96990.59
2022-08-18T09:48:08.746Z,96986.53
2022-08-18T09:50:52.750Z,96990.31
2022-08-18T09:53:37.182Z,96989.13
2022-08-18T09:56:05.650Z,96986.50
2022-08-18T09:58:53.201Z,96997.13
2022-08-18T10:01:36.609Z,96980.69
2022-08-18T10:04:33.740Z,96987.66
2022-08-18T10:07:23.584Z,96974.19
2022-08-18T10:11:01.371Z,96980.81
2022-08-18T10:13:21.647Z,96985.53
2022-08-18T10:16:10.837Z,96975.19
2022-08-18T10:19:09.075Z,96981.47
2022-08-18T10:22:00.723Z,96978.22
2022-08-18T10:24:35.958Z,96979.97
2022-08-18T10:27:38.948Z,96973.63
2022-08-18T10:30:06.201Z,96977.47
2022-08-18T10:32:44.388Z,96971.97
2022-08-18T10:35:38.445Z,96975.66
2022-08-18T10:38:19.273Z,96969.75
2022-08-18T10:40:58.606Z,96975.09
2022-08-18T10:43:55.258Z,96977.03
2022-08-18T10:46:35.022Z,96974.81
2022-08-18T10:49:25.790Z,96977.13
2022-08-18T10:52:10.863Z,96985.56
2022-08-18T10:54:54.312Z,96978.16
2022-08-18T10:57:42.886Z,96967.63
2022-08-18T11:00:19.409Z,96968.78
2022-08-18T11:03:39.926Z,96958.91
2022-08-18T11:06:14.559Z,96953.22
2022-08-18T11:08:54.768Z,96948.69
2022-08-18T11:11:53.584Z,96952.19
2022-08-18T11:14:51.402Z,96946.22
2022-08-18T11:17:35.596Z,96949.38
2022-08-18T11:20:07.994Z,96948.66
2022-08-18T11:22:36.003Z,96950.19
2022-08-18T11:25:05.366Z,96952.75
2022-08-18T11:27:46.690Z,96953.94
2022-08-18T11:30:15.544Z,96958.56
2022-08-18T11:32:51.512Z,96960.63
2022-08-18T11:35:32.035Z,96953.81
2022-08-18T11:38:01.167Z,96941.13
2022-08-18T11:43:38.943Z,96935.53
2022-08-18T11:46:35.201Z,96930.97
2022-08-18T11:49:26.159Z,96924.31
2022-08-18T11:52:03.445Z,96925.91
2022-08-18T11:54:38.415Z,96922.13
2022-08-18T11:57:27.504Z,96925.34
2022-08-18T12:00:00.469Z,96922.50
2022-08-18T12:02:27.877Z,96918.16
2022-08-18T12:04:57.866Z,96921.13
2022-08-18T12:07:34.326Z,96918.16
2022-08-18T12:10:18.073Z,96913.25
2022-08-18T12:12:53.407Z,96914.50
2022-08-18T12:15:24.589Z,96903.47
2022-08-18T12:17:52.975Z,96899.69
2022-08-18T12:20:19.815Z,96899.41
2022-08-18T12:22:46.896Z,96907.66
2022-08-18T12:25:16.329Z,96913.31
2022-08-18T12:27:51.624Z,96923.78
2022-08-18T12:30:19.106Z,96937.28
2022-08-18T12:32:49.347Z,96952.63
2022-08-18T12:35:21.721Z,96959.38
2022-08-18T12:38:12.544Z,96965.00
2022-08-18T12:40:35.671Z,96960.66
2022-08-18T12:43:02.297Z,96956.31
2022-08-18T12:45:31.136Z,96952.38
2022-08-18T12:48:02.487Z,96949.59
2022-08-18T12:50:36.139Z,96939.78
2022-08-18T12:53:04.890Z,96915.03
2022-08-18T12:55:37.623Z,96904.72
2022-08-18T12:58:10.231Z,96892.78
2022-08-18T13:00:37.445Z,96889.47
2022-08-18T13:03:04.086Z,96904.72
2022-08-18T13:05:30.691Z,96919.13
2022-08-18T13:08:04.190Z,96904.94
2022-08-18T13:10:42.936Z,96904.22
2022-08-18T13:13:19.576Z,96906.63
2022-08-18T13:15:55.686Z,96903.09
2022-08-18T13:18:28.838Z,96900.97
2022-08-18T13:21:00.212Z,96886.03
2022-08-18T13:23:30.263Z,96867.47
2022-08-18T13:25:59.388Z,96866.72
2022-08-18T13:28:30.799Z,96866.13
2022-08-18T13:31:00.812Z,96860.09
2022-08-18T13:33:34.965Z,96858.94
2022-08-18T13:36:15.014Z,96852.16
2022-08-18T13:38:43.557Z,96855.00
2022-08-18T13:41:15.946Z,96859.50
2022-08-18T13:43:44.667Z,96856.91
2022-08-18T13:46:18.608Z,96861.06
2022-08-18T13:48:50.800Z,96851.31
2022-08-18T13:51:22.861Z,96856.66
2022-08-18T13:53:59.322Z,96856.91
2022-08-18T13:56:36.188Z,96850.69
2022-08-18T13:59:06.526Z,96855.56
2022-08-18T14:01:44.944Z,96861.44
2022-08-18T14:04:20.421Z,96861.63
2022-08-18T14:06:51.321Z,96855.16
2022-08-18T14:09:36.347Z,96858.88
2022-08-18T14:12:15.787Z,96868.97
2022-08-18T14:14:52.096Z,96877.78
2022-08-18T14:17:20.431Z,96879.53
2022-08-18T14:20:10.742Z,96866.97
2022-08-18T14:23:00.803Z,96866.00
2022-08-18T14:25:45.900Z,96850.97
2022-08-18T14:28:12.805Z,96852.63
2022-08-18T14:30:40.093Z,96851.25
2022-08-18T14:33:11.767Z,96860.84
2022-08-18T14:36:06.568Z,96860.44
2022-08-18T14:38:25.184Z,96860.41
2022-08-18T14:40:52.001Z,96857.41
2022-08-18T14:43:24.975Z,96861.78
2022-08-18T14:45:53.728Z,96863.63
2022-08-18T14:48:26.885Z,96865.84
2022-08-18T14:50:55.622Z,96871.09
2022-08-18T14:53:25.527Z,96866.56
2022-08-18T14:55:53.132Z,96864.41
2022-08-18T14:58:21.259Z,96875.28
2022-08-18T15:00:53.704Z,96867.31
2022-08-18T15:03:22.231Z,96874.25
2022-08-18T15:05:58.061Z,96882.78
2022-08-18T15:08:26.270Z,96883.53
2022-08-18T15:10:53.858Z,96870.84
2022-08-18T15:13:20.618Z,96868.66
2022-08-18T15:15:52.184Z,96873.75
2022-08-18T15:18:22.733Z,96880.75
2022-08-18T15:21:10.511Z,96876.38
2022-08-18T15:24:04.847Z,96875.34
2022-08-18T15:26:42.459Z,96876.91
2022-08-18T15:29:10.908Z,96880.13
2022-08-18T15:32:02.241Z,96873.34
2022-08-18T15:34:28.704Z,96873.22
2022-08-18T15:36:57.021Z,96869.78
2022-08-18T15:39:24.213Z,96871.50
2022-08-18T15:44:22.618Z,96862.38
2022-08-18T15:46:53.011Z,96864.63
2022-08-18T15:49:21.815Z,96862.66
2022-08-18T15:51:49.910Z,96853.00
2022-08-18T15:54:16.536Z,96852.50
2022-08-18T15:56:46.426Z,96860.44
2022-08-18T15:59:27.033Z,96856.69
2022-08-18T16:02:01.514Z,96864.72
2022-08-18T16:04:28.123Z,96851.41
2022-08-18T16:06:56.220Z,96850.50
2022-08-18T16:09:22.832Z,96843.03
2022-08-18T16:11:50.023Z,96847.91
2022-08-18T16:14:16.964Z,96853.84
2022-08-18T16:16:43.760Z,96858.69
2022-08-18T16:19:10.300Z,96852.75
2022-08-18T16:21:40.076Z,96854.31
2022-08-18T16:24:07.623Z,96858.63
2022-08-18T16:26:35.598Z,96858.06
2022-08-18T16:29:02.273Z,96864.50
2022-08-18T16:31:29.418Z,96870.66
2022-08-18T16:33:57.894Z,96870.13
2022-08-18T16:36:27.855Z,96877.91
2022-08-18T16:38:58.133Z,96873.88
2022-08-18T16:41:25.946Z,96867.06
2022-08-18T16:43:52.645Z,96877.00
2022-08-18T16:46:24.543Z,96866.53
2022-08-18T16:48:51.557Z,96877.38
2022-08-18T16:51:21.726Z,96867.47
2022-08-18T16:53:52.129Z,96883.91
2022-08-18T16:56:21.092Z,96885.00
2022-08-18T16:59:07.976Z,96874.47
2022-08-18T17:01:54.428Z,96882.81
2022-08-18T17:04:24.213Z,96870.19
2022-08-18T17:06:51.219Z,96878.81
2022-08-18T17:09:19.383Z,96871.28
2022-08-18T17:11:51.209Z,96872.13
2022-08-18T17:14:19.856Z,96863.00
2022-08-18T17:16:47.449Z,96861.63
2022-08-18T17:19:14.415Z,96866.72
2022-08-18T17:21:41.165Z,96859.41
2022-08-18T17:24:09.482Z,96859.41
2022-08-18T17:27:25.790Z,96855.63
2022-08-18T17:29:52.997Z,96844.34
2022-08-18T17:32:31.599Z,96849.44
2022-08-18T17:35:05.004Z,96847.56
2022-08-18T17:37:31.839Z,96847.25
2022-08-18T17:40:07.277Z,96839.19
2022-08-18T17:42:37.310Z,96828.44
2022-08-18T17:45:10.481Z,96818.16
2022-08-18T17:48:03.429Z,96826.19
2022-08-18T17:50:58.769Z,96828.03
2022-08-18T17:53:26.145Z,96827.16
2022-08-18T17:55:59.946Z,96830.31
2022-08-18T17:58:29.586Z,96813.06
2022-08-18T18:00:56.194Z,96817.91
2022-08-18T18:03:23.024Z,96825.28
2022-08-18T18:05:52.081Z,96824.69
2022-08-18T18:08:18.839Z,96831.34
2022-08-18T18:11:05.463Z,96829.41
2022-08-18T18:13:33.420Z,96828.75
2022-08-18T18:16:03.307Z,96832.41
2022-08-18T18:18:41.277Z,96834.75
2022-08-18T18:21:21.620Z,96825.81
2022-08-18T18:24:11.695Z,96828.41
2022-08-18T18:26:41.965Z,96830.19
2022-08-18T18:29:31.538Z,96834.63
2022-08-18T18:32:29.262Z,96831.28
2022-08-18T18:35:12.934Z,96831.44
2022-08-18T18:37:47.676Z,96829.81
2022-08-18T18:40:39.676Z,96840.91
2022-08-18T18:43:20.539Z,96839.66
2022-08-18T18:46:18.341Z,96846.94
2022-08-18T18:49:23.122Z,96844.38
2022-08-18T18:52:11.370Z,96853.97
2022-08-18T18:55:13.795Z,96845.63
2022-08-18T18:58:08.517Z,96846.19
2022-08-18T19:00:53.599Z,96847.72
2022-08-18T19:03:47.100Z,96854.34
2022-08-18T19:06:52.364Z,96856.88
2022-08-18T19:09:35.009Z,96857.91
2022-08-18T19:12:07.186Z,96860.38
2022-08-18T19:14:38.484Z,96865.13
2022-08-18T19:17:05.408Z,96860.19
2022-08-18T19:19:41.691Z,96862.50
2022-08-18T19:22:19.911Z,96859.28
2022-08-18T19:25:35.260Z,96863.06
2022-08-18T19:28:12.740Z,96869.44
2022-08-18T19:30:42.343Z,96868.75
2022-08-18T19:33:11.773Z,96867.53
2022-08-18T19:36:00.274Z,96872.16
2022-08-18T19:38:37.147Z,96874.41
2022-08-18T19:41:26.794Z,96882.06
2022-08-18T19:44:29.183Z,96873.84
2022-08-18T19:47:08.541Z,96870.84
2022-08-18T19:49:47.078Z,96865.53
2022-08-18T19:52:46.641Z,96869.09
2022-08-18T19:55:43.394Z,96868.28
2022-08-18T19:58:58.569Z,96875.72
2022-08-18T20:01:39.740Z,96878.03
2022-08-18T20:04:13.387Z,96882.44
2022-08-18T20:06:49.942Z,96886.03
2022-08-18T20:09:50.400Z,96875.94
2022-08-18T20:13:01.758Z,96869.31
2022-08-18T20:15:28.816Z,96871.53
2022-08-18T20:17:58.561Z,96865.63
2022-08-18T20:20:28.025Z,96877.31
2022-08-18T20:22:57.364Z,96875.44
2022-08-18T20:25:24.115Z,96885.41
2022-08-18T20:27:53.421Z,96880.06
2022-08-18T20:30:19.979Z,96870.06
2022-08-18T20:33:07.895Z,96871.22
2022-08-18T20:35:41.694Z,96868.78
2022-08-18T20:38:34.857Z,96878.19
2022-08-18T20:42:01.133Z,96881.53
2022-08-18T20:44:49.638Z,96882.44
2022-08-18T20:47:31.267Z,96866.69
2022-08-18T20:50:03.922Z,96866.28
2022-08-18T20:52:41.369Z,96860.94
2022-08-18T20:55:41.687Z,96852.75
2022-08-18T20:58:14.762Z,96860.13
2022-08-18T21:00:44.720Z,96864.84
2022-08-18T21:03:15.182Z,96865.69
2022-08-18T21:05:43.763Z,96872.84
2022-08-18T21:08:14.202Z,96879.34
2022-08-18T21:10:55.994Z,96865.22
2022-08-18T21:13:32.223Z,96874.72
2022-08-18T21:15:59.766Z,96868.59
2022-08-18T21:18:27.417Z,96875.09
2022-08-18T21:20:57.155Z,96869.19
2022-08-18T21:23:29.695Z,96871.72
2022-08-18T21:26:09.187Z,96863.91
2022-08-18T21:28:38.842Z,96856.59
2022-08-18T21:31:43.108Z,96861.72
2022-08-18T21:33:59.358Z,96865.63
2022-08-18T21:36:31.522Z,96870.13
2022-08-18T21:39:08.808Z,96870.59
2022-08-18T21:41:48.179Z,96877.44
2022-08-18T21:44:19.653Z,96867.47
2022-08-18T21:46:46.828Z,96876.50
2022-08-18T21:49:23.655Z,96876.38
2022-08-18T21:51:51.769Z,96881.31
2022-08-18T21:54:24.023Z,96875.63
2022-08-18T21:57:18.351Z,96885.09
2022-08-18T22:00:24.215Z,96873.88
2022-08-18T22:02:52.561Z,96873.75
2022-08-18T22:05:31.027Z,96872.94
2022-08-18T22:08:20.003Z,96886.81
2022-08-18T22:12:02.124Z,96884.75
2022-08-18T22:14:35.715Z,96887.22
2022-08-18T22:17:32.678Z,96891.16
2022-08-18T22:20:31.816Z,96882.81
2022-08-18T22:23:43.768Z,96890.28
2022-08-18T22:26:16.286Z,96886.59
2022-08-18T22:28:50.356Z,96889.72
2022-08-18T22:31:20.909Z,96899.34
2022-08-18T22:33:48.008Z,96891.16
2022-08-18T22:36:20.668Z,96903.41
2022-08-18T22:38:48.305Z,96903.00
2022-08-18T22:41:16.008Z,96902.78
2022-08-18T22:43:42.576Z,96903.13
2022-08-18T22:46:09.199Z,96906.06
2022-08-18T22:48:35.887Z,96902.38
2022-08-18T22:51:03.354Z,96909.34
2022-08-18T22:53:29.991Z,96900.00
2022-08-18T22:55:59.413Z,96901.19
2022-08-18T22:58:32.430Z,96903.25
2022-08-18T23:01:05.499Z,96910.06
2022-08-18T23:03:35.083Z,96913.31
2022-08-18T23:06:09.475Z,96899.94
2022-08-18T23:08:54.436Z,96909.13
2022-08-18T23:11:26.355Z,96909.50
2022-08-18T23:13:54.012Z,96913.19
2022-08-18T23:16:31.281Z,96909.84
2022-08-18T23:19:02.012Z,96906.16
2022-08-18T23:21:34.394Z,96912.59
2022-08-18T23:24:07.116Z,96909.34
2022-08-18T23:26:34.393Z,96909.50
2022-08-18T23:29:01.252Z,96904.19
2022-08-18T23:31:27.830Z,96903.72
2022-08-18T23:33:54.406Z,96896.06
2022-08-18T23:36:21.009Z,96903.41
2022-08-18T23:38:47.940Z,96901.44
2022-08-18T23:41:16.272Z,96905.44
2022-08-18T23:43:42.876Z,96892.78
2022-08-18T23:46:19.139Z,96897.59
2022-08-18T23:48:49.871Z,96897.00
2022-08-18T23:51:50.862Z,96905.66
2022-08-18T23:54:20.003Z,96910.34
2022-08-18T23:56:47.704Z,96908.81
2022-08-18T23:59:15.326Z,96910.50
